createdAt,value
2017-10-09T00:00:27.354Z,9.00
2017-10-09T00:02:54.935Z,8.67
2017-10-09T00:05:22.537Z,8.67
2017-10-09T00:07:50.112Z,8.67
2017-10-09T00:10:17.774Z,8.50
2017-10-09T00:12:45.356Z,8.10
2017-10-09T00:15:12.945Z,8.60
2017-10-09T00:17:40.540Z,8.90
2017-10-09T00:20:08.115Z,8.80
2017-10-09T00:22:35.718Z,8.20
2017-10-09T00:25:03.296Z,8.70
2017-10-09T00:27:30.881Z,8.70
2017-10-09T00:29:58.483Z,8.60
2017-10-09T00:32:26.060Z,8.67
2017-10-09T00:34:53.966Z,8.97
2017-10-09T00:37:21.828Z,8.80
2017-10-09T00:39:49.405Z,9.03
2017-10-09T00:42:17.029Z,8.80
2017-10-09T00:44:44.613Z,8.60
2017-10-09T00:47:12.224Z,8.60
2017-10-09T00:49:39.805Z,8.77
2017-10-09T00:52:07.391Z,8.70
2017-10-09T00:54:34.991Z,8.70
2017-10-09T00:57:02.564Z,8.80
2017-10-09T00:59:30.175Z,9.10
2017-10-09T01:01:57.781Z,8.97
2017-10-09T01:04:25.373Z,9.10
2017-10-09T01:06:52.979Z,8.80
2017-10-09T01:09:20.560Z,9.10
2017-10-09T01:11:48.189Z,9.30
2017-10-09T01:14:15.777Z,8.97
2017-10-09T01:16:43.725Z,9.37
2017-10-09T01:19:11.592Z,8.80
2017-10-09T01:21:39.471Z,8.87
2017-10-09T01:24:07.095Z,8.90
2017-10-09T01:26:34.670Z,9.63
2017-10-09T01:29:02.265Z,9.30
2017-10-09T01:31:29.872Z,9.37
2017-10-09T01:33:57.453Z,9.23
2017-10-09T01:36:25.070Z,8.80
2017-10-09T01:38:53.000Z,9.40
2017-10-09T01:41:20.600Z,9.13
2017-10-09T01:43:48.203Z,9.03
2017-10-09T01:46:15.785Z,9.57
2017-10-09T01:48:43.420Z,9.57
2017-10-09T01:51:11.001Z,10.87
2017-10-09T01:53:38.579Z,9.27
2017-10-09T01:56:06.175Z,9.40
2017-10-09T01:58:33.997Z,9.17
2017-10-09T02:01:01.609Z,9.80
2017-10-09T02:03:29.190Z,9.33
2017-10-09T02:05:56.783Z,9.73
2017-10-09T02:08:24.395Z,9.30
2017-10-09T02:10:51.974Z,9.13
2017-10-09T02:13:19.595Z,9.30
2017-10-09T02:15:47.170Z,10.00
2017-10-09T02:18:14.746Z,9.40
2017-10-09T02:20:42.344Z,9.30
2017-10-09T02:23:09.920Z,9.47
2017-10-09T02:25:37.546Z,9.87
2017-10-09T02:28:05.452Z,9.60
2017-10-09T02:30:33.035Z,9.60
2017-10-09T02:33:00.649Z,9.43
2017-10-09T02:35:28.229Z,9.63
2017-10-09T02:37:55.856Z,9.03
2017-10-09T02:40:23.449Z,8.90
2017-10-09T02:42:51.064Z,9.60
2017-10-09T02:45:18.685Z,10.07
2017-10-09T02:47:46.268Z,9.57
2017-10-09T02:50:14.212Z,9.57
2017-10-09T02:52:41.792Z,9.50
2017-10-09T02:55:09.381Z,9.63
2017-10-09T02:57:36.993Z,9.17
2017-10-09T03:00:04.586Z,9.50
2017-10-09T03:02:32.209Z,9.27
2017-10-09T03:04:59.782Z,9.27
2017-10-09T03:07:27.366Z,9.17
2017-10-09T03:09:54.984Z,9.60
2017-10-09T03:12:22.563Z,9.20
2017-10-09T03:14:50.185Z,9.37
2017-10-09T03:17:17.779Z,9.07
2017-10-09T03:19:45.370Z,9.20
2017-10-09T03:22:23.552Z,9.20
2017-10-09T03:24:53.069Z,9.87
2017-10-09T03:27:25.149Z,9.17
2017-10-09T03:29:52.997Z,9.37
2017-10-09T03:32:20.606Z,9.40
2017-10-09T03:34:48.423Z,9.60
2017-10-09T03:37:16.048Z,11.07
2017-10-09T03:39:43.951Z,9.10
2017-10-09T03:42:11.525Z,9.17
2017-10-09T03:44:39.126Z,9.70
2017-10-09T03:47:06.709Z,9.50
2017-10-09T03:49:34.603Z,9.40
2017-10-09T03:52:02.190Z,8.60
2017-10-09T03:54:29.773Z,9.40
2017-10-09T03:56:57.380Z,9.30
2017-10-09T03:59:25.361Z,9.70
2017-10-09T04:01:52.981Z,9.03
2017-10-09T04:04:20.558Z,9.80
2017-10-09T04:06:48.138Z,9.30
2017-10-09T04:09:15.741Z,9.00
2017-10-09T04:11:43.585Z,9.40
2017-10-09T04:14:11.551Z,8.90
2017-10-09T04:16:39.129Z,8.80
2017-10-09T04:19:07.083Z,9.80
2017-10-09T04:21:34.688Z,9.53
2017-10-09T04:24:02.273Z,9.30
2017-10-09T04:26:29.894Z,9.40
2017-10-09T04:28:57.730Z,9.87
2017-10-09T04:31:25.316Z,9.20
2017-10-09T04:33:53.370Z,9.43
2017-10-09T04:36:20.965Z,9.37
2017-10-09T04:38:48.897Z,9.83
2017-10-09T04:41:16.497Z,9.17
2017-10-09T04:43:44.109Z,9.10
2017-10-09T04:46:11.707Z,9.10
2017-10-09T04:48:39.288Z,9.53
2017-10-09T04:51:06.937Z,10.30
2017-10-09T04:53:34.769Z,9.70
2017-10-09T04:56:02.349Z,9.97
2017-10-09T04:58:30.004Z,9.50
2017-10-09T05:00:57.578Z,9.47
2017-10-09T05:03:25.197Z,9.73
2017-10-09T05:05:52.764Z,8.90
2017-10-09T05:08:20.338Z,9.40
2017-10-09T05:10:47.981Z,8.97
2017-10-09T05:13:15.875Z,9.43
2017-10-09T05:15:43.510Z,9.30
2017-10-09T05:18:11.099Z,10.20
2017-10-09T05:20:38.688Z,9.53
2017-10-09T05:23:06.300Z,9.07
2017-10-09T05:25:33.899Z,9.83
2017-10-09T05:28:01.524Z,10.83
2017-10-09T05:30:29.091Z,9.63
2017-10-09T05:32:56.671Z,9.57
2017-10-09T05:35:24.635Z,9.30
2017-10-09T05:37:52.605Z,9.50
2017-10-09T05:40:20.213Z,8.70
2017-10-09T05:42:47.910Z,9.83
2017-10-09T05:45:15.490Z,10.30
2017-10-09T05:47:43.104Z,9.43
2017-10-09T05:50:10.703Z,10.43
2017-10-09T05:52:38.321Z,9.37
2017-10-09T05:55:05.905Z,10.47
2017-10-09T05:57:33.484Z,10.17
2017-10-09T06:00:01.132Z,10.70
2017-10-09T06:02:28.722Z,10.13
2017-10-09T06:04:56.335Z,10.20
2017-10-09T06:07:24.261Z,11.27
2017-10-09T06:09:51.857Z,10.87
2017-10-09T06:12:19.559Z,10.50
2017-10-09T06:14:47.169Z,10.50
2017-10-09T06:17:14.789Z,9.80
2017-10-09T06:19:42.396Z,10.30
2017-10-09T06:22:10.008Z,10.73
2017-10-09T06:24:37.610Z,10.80
2017-10-09T06:27:05.236Z,11.00
2017-10-09T06:29:33.231Z,10.47
2017-10-09T06:32:00.833Z,10.23
2017-10-09T06:34:28.456Z,10.23
2017-10-09T06:36:56.274Z,10.23
2017-10-09T06:39:23.864Z,10.90
2017-10-09T06:41:51.748Z,10.30
2017-10-09T06:44:19.335Z,9.93
2017-10-09T06:46:46.976Z,10.33
2017-10-09T06:49:14.672Z,10.33
2017-10-09T06:51:42.303Z,10.60
2017-10-09T06:54:09.921Z,10.23
2017-10-09T06:56:37.510Z,10.80
2017-10-09T06:59:05.491Z,10.23
2017-10-09T07:01:33.088Z,10.73
2017-10-09T07:04:01.020Z,10.50
2017-10-09T07:06:28.885Z,10.93
2017-10-09T07:08:56.459Z,10.80
2017-10-09T07:11:24.092Z,10.33
2017-10-09T07:13:51.684Z,11.03
2017-10-09T07:16:19.537Z,10.83
2017-10-09T07:18:47.142Z,12.03
2017-10-09T07:21:14.757Z,11.10
2017-10-09T07:23:42.385Z,11.80
2017-10-09T07:26:10.293Z,12.20
2017-10-09T07:28:37.891Z,11.93
2017-10-09T07:31:05.496Z,12.80
2017-10-09T07:33:33.080Z,13.07
2017-10-09T07:36:00.702Z,12.93
2017-10-09T07:38:28.328Z,12.50
2017-10-09T07:40:55.904Z,12.47
2017-10-09T07:43:23.531Z,13.20
2017-10-09T07:45:51.158Z,12.77
2017-10-09T07:48:18.773Z,13.20
2017-10-09T07:53:20.104Z,12.53
2017-10-09T07:55:47.715Z,12.00
2017-10-09T07:58:15.343Z,13.37
2017-10-09T08:00:43.314Z,13.03
2017-10-09T08:03:10.902Z,11.93
2017-10-09T08:05:38.529Z,12.87
2017-10-09T08:08:06.129Z,12.23
2017-10-09T08:10:33.712Z,13.50
2017-10-09T08:13:01.625Z,13.27
2017-10-09T08:15:29.220Z,12.90
2017-10-09T08:17:56.835Z,12.60
2017-10-09T08:20:24.425Z,13.90
2017-10-09T08:22:52.017Z,13.03
2017-10-09T08:25:19.662Z,12.60
2017-10-09T08:27:47.506Z,12.50
2017-10-09T08:30:15.142Z,12.40
2017-10-09T08:32:42.793Z,12.17
2017-10-09T08:35:10.406Z,12.57
2017-10-09T08:37:38.021Z,12.53
2017-10-09T08:40:05.605Z,11.63
2017-10-09T08:42:33.240Z,11.30
2017-10-09T08:45:00.854Z,12.60
2017-10-09T08:47:28.452Z,11.53
2017-10-09T08:49:56.094Z,12.70
2017-10-09T08:52:23.697Z,15.43
2017-10-09T08:54:51.340Z,12.63
2017-10-09T08:57:19.256Z,12.00
2017-10-09T08:59:46.849Z,11.03
2017-10-09T09:02:14.510Z,11.60
2017-10-09T09:04:42.104Z,11.10
2017-10-09T09:07:09.737Z,10.97
2017-10-09T09:09:37.335Z,10.67
2017-10-09T09:12:04.939Z,10.10
2017-10-09T09:14:32.593Z,10.40
2017-10-09T09:17:00.175Z,10.77
2017-10-09T09:19:27.825Z,10.53
2017-10-09T09:21:55.413Z,9.67
2017-10-09T09:24:22.999Z,10.10
2017-10-09T09:26:51.085Z,10.30
2017-10-09T09:29:18.682Z,9.80
2017-10-09T09:31:46.621Z,9.70
2017-10-09T09:34:14.203Z,9.40
2017-10-09T09:36:42.295Z,11.37
2017-10-09T09:39:09.911Z,10.30
2017-10-09T09:41:37.486Z,9.80
2017-10-09T09:44:05.132Z,9.73
2017-10-09T09:46:33.031Z,9.50
2017-10-09T09:49:00.629Z,10.03
2017-10-09T09:51:28.561Z,10.27
2017-10-09T09:53:56.225Z,9.90
2017-10-09T09:56:23.852Z,9.77
2017-10-09T09:58:51.764Z,9.77
2017-10-09T10:01:19.353Z,9.70
2017-10-09T10:03:46.970Z,9.93
2017-10-09T10:06:14.569Z,9.90
2017-10-09T10:08:42.581Z,9.70
2017-10-09T10:11:10.190Z,10.50
2017-10-09T10:13:37.775Z,9.17
2017-10-09T10:16:05.702Z,9.93
2017-10-09T10:18:33.306Z,9.30
2017-10-09T10:21:00.928Z,9.20
2017-10-09T10:23:28.505Z,8.80
2017-10-09T10:25:56.127Z,9.03
2017-10-09T10:28:24.117Z,8.90
2017-10-09T10:30:51.712Z,8.87
2017-10-09T10:33:19.336Z,8.23
2017-10-09T10:35:46.930Z,8.40
2017-10-09T10:38:14.548Z,8.33
2017-10-09T10:40:42.172Z,17.60
2017-10-09T10:43:09.774Z,9.17
2017-10-09T10:45:37.755Z,8.73
2017-10-09T10:48:05.340Z,8.67
2017-10-09T10:50:32.926Z,8.60
2017-10-09T10:53:00.545Z,8.40
2017-10-09T10:55:28.373Z,8.30
2017-10-09T10:57:55.993Z,8.70
2017-10-09T11:00:23.648Z,8.30
2017-10-09T11:02:51.221Z,8.43
2017-10-09T11:05:18.833Z,8.07
2017-10-09T11:07:47.005Z,8.83
2017-10-09T11:10:14.624Z,8.10
2017-10-09T11:12:42.205Z,8.20
2017-10-09T11:15:09.808Z,8.60
2017-10-09T11:17:37.409Z,8.60
2017-10-09T11:20:05.000Z,8.47
2017-10-09T11:22:32.623Z,8.20
2017-10-09T11:25:00.219Z,7.77
2017-10-09T11:27:27.812Z,8.20
2017-10-09T11:29:55.424Z,8.60
2017-10-09T11:32:23.013Z,7.50
2017-10-09T11:34:50.632Z,8.30
2017-10-09T11:37:18.219Z,8.43
2017-10-09T11:39:45.825Z,8.23
2017-10-09T11:42:13.437Z,8.10
2017-10-09T11:44:41.270Z,7.80
2017-10-09T11:47:09.067Z,8.30
2017-10-09T11:49:36.661Z,7.80
2017-10-09T11:52:04.293Z,8.20
2017-10-09T11:54:31.882Z,8.70
2017-10-09T11:56:59.464Z,8.07
2017-10-09T11:59:27.080Z,8.70
2017-10-09T12:01:54.664Z,8.40
2017-10-09T12:04:22.272Z,7.93
2017-10-09T12:06:49.869Z,8.03
2017-10-09T12:09:17.893Z,8.17
2017-10-09T12:11:45.770Z,7.83
2017-10-09T12:14:13.637Z,7.90
2017-10-09T12:16:41.611Z,8.00
2017-10-09T12:19:09.194Z,7.63
2017-10-09T12:21:36.813Z,8.37
2017-10-09T12:26:38.534Z,8.20
2017-10-09T12:29:06.169Z,8.10
2017-10-09T12:31:33.761Z,8.07
2017-10-09T12:34:01.372Z,7.97
2017-10-09T12:36:28.958Z,7.73
2017-10-09T12:38:56.589Z,7.83
2017-10-09T12:41:24.172Z,8.40
2017-10-09T12:43:51.748Z,7.87
2017-10-09T12:46:19.360Z,8.20
2017-10-09T12:48:46.948Z,8.13
2017-10-09T12:51:14.623Z,8.00
2017-10-09T12:53:42.259Z,8.63
2017-10-09T12:56:09.844Z,8.00
2017-10-09T12:58:37.493Z,8.57
2017-10-09T13:01:05.076Z,8.00
2017-10-09T13:03:32.696Z,8.60
2017-10-09T13:06:00.304Z,8.00
2017-10-09T13:08:27.891Z,8.10
2017-10-09T13:10:55.525Z,8.00
2017-10-09T13:13:23.113Z,7.93
2017-10-09T13:15:50.745Z,8.10
2017-10-09T13:18:18.609Z,9.97
2017-10-09T13:20:47.748Z,8.87
2017-10-09T13:23:15.672Z,8.90
2017-10-09T13:25:43.543Z,8.80
2017-10-09T13:28:11.186Z,9.10
2017-10-09T13:30:38.810Z,9.30
2017-10-09T13:33:06.414Z,9.40
2017-10-09T13:35:34.046Z,8.80
2017-10-09T13:38:01.624Z,9.23
2017-10-09T13:40:29.279Z,9.23
2017-10-09T13:42:56.873Z,8.90
2017-10-09T13:45:24.460Z,9.57
2017-10-09T13:47:52.078Z,9.20
2017-10-09T13:50:19.665Z,10.03
2017-10-09T13:52:47.326Z,10.20
2017-10-09T13:55:14.922Z,11.63
2017-10-09T13:57:42.853Z,9.20
2017-10-09T14:00:10.477Z,11.03
2017-10-09T14:02:37.810Z,10.00
2017-10-09T14:05:05.430Z,9.03
2017-10-09T14:07:33.013Z,9.20
2017-10-09T14:10:00.737Z,9.80
2017-10-09T14:12:28.359Z,9.30
2017-10-09T14:14:55.940Z,9.97
2017-10-09T14:17:23.552Z,9.13
2017-10-09T14:19:51.144Z,9.67
2017-10-09T14:22:18.732Z,9.60
2017-10-09T14:24:46.380Z,9.47
2017-10-09T14:27:13.972Z,8.97
2017-10-09T14:29:41.609Z,9.33
2017-10-09T14:42:00.219Z,8.60
2017-10-09T14:44:27.817Z,9.30
2017-10-09T14:46:55.419Z,8.70
2017-10-09T14:49:23.041Z,8.80
2017-10-09T14:51:50.633Z,8.93
2017-10-09T14:54:18.267Z,9.10
2017-10-09T14:56:45.855Z,8.93
2017-10-09T14:59:13.448Z,9.33
2017-10-09T15:01:41.074Z,10.00
2017-10-09T15:04:08.677Z,10.80
2017-10-09T15:06:36.338Z,10.77
2017-10-09T15:09:03.929Z,10.87
2017-10-09T15:11:31.545Z,9.77
2017-10-09T15:13:59.171Z,9.30
2017-10-09T15:16:26.757Z,9.30
2017-10-09T15:18:54.720Z,9.00
2017-10-09T15:21:22.690Z,9.30
2017-10-09T15:23:50.290Z,8.70
2017-10-09T15:26:17.906Z,8.73
2017-10-09T15:28:45.493Z,8.27
2017-10-09T15:31:13.157Z,8.90
2017-10-09T15:33:40.755Z,8.40
2017-10-09T15:36:08.353Z,9.30
2017-10-09T15:38:36.321Z,9.23
2017-10-09T15:41:03.916Z,9.87
2017-10-09T15:43:31.553Z,9.33
2017-10-09T15:45:59.179Z,8.83
2017-10-09T15:48:26.787Z,9.10
2017-10-09T15:50:54.751Z,10.80
2017-10-09T15:53:22.333Z,8.90
2017-10-09T15:55:50.401Z,9.20
2017-10-09T15:58:18.001Z,10.80
2017-10-09T16:00:45.597Z,8.93
2017-10-09T16:03:13.221Z,9.13
2017-10-09T16:05:41.130Z,9.00
2017-10-09T16:08:08.776Z,9.10
2017-10-09T16:10:36.369Z,8.60
2017-10-09T16:13:03.961Z,8.40
2017-10-09T16:15:31.585Z,8.60
2017-10-09T16:17:59.180Z,9.47
2017-10-09T16:20:26.808Z,8.93
2017-10-09T16:22:54.664Z,8.93
2017-10-09T16:25:22.257Z,8.77
2017-10-09T16:27:49.867Z,9.10
2017-10-09T16:30:17.765Z,8.90
2017-10-09T16:32:45.385Z,8.67
2017-10-09T16:35:13.291Z,8.70
2017-10-09T16:37:41.088Z,8.73
2017-10-09T16:40:08.711Z,9.90
2017-10-09T16:42:36.306Z,8.83
2017-10-09T16:45:03.932Z,8.50
2017-10-09T16:47:31.526Z,8.70
2017-10-09T16:49:59.136Z,8.93
2017-10-09T16:52:26.763Z,8.60
2017-10-09T16:54:54.376Z,9.40
2017-10-09T16:57:21.996Z,8.80
2017-10-09T16:59:49.915Z,8.83
2017-10-09T17:02:17.518Z,8.90
2017-10-09T17:04:45.764Z,9.00
2017-10-09T17:07:13.428Z,8.70
2017-10-09T17:09:41.396Z,8.73
2017-10-09T17:12:09.705Z,9.33
2017-10-09T17:14:37.321Z,8.67
2017-10-09T17:17:04.936Z,9.03
2017-10-09T17:19:32.535Z,8.80
2017-10-09T17:22:00.174Z,8.80
2017-10-09T17:24:27.763Z,9.80
2017-10-09T17:26:55.359Z,10.73
2017-10-09T17:29:22.981Z,9.70
2017-10-09T17:31:50.575Z,9.90
2017-10-09T17:34:18.209Z,9.97
2017-10-09T17:36:45.793Z,10.50
2017-10-09T17:39:13.385Z,9.40
2017-10-09T17:41:41.002Z,9.50
2017-10-09T17:44:09.328Z,9.10
2017-10-09T17:46:37.075Z,9.23
2017-10-09T17:49:04.670Z,9.20
2017-10-09T17:51:32.268Z,9.33
2017-10-09T17:53:59.896Z,9.67
2017-10-09T17:56:27.492Z,9.60
2017-10-09T17:58:55.128Z,9.43
2017-10-09T18:01:22.728Z,9.97
2017-10-09T18:03:50.330Z,9.20
2017-10-09T18:06:18.231Z,9.90
2017-10-09T18:08:45.844Z,9.20
2017-10-09T18:11:13.470Z,8.90
2017-10-09T18:13:41.089Z,9.70
2017-10-09T18:16:08.684Z,10.40
2017-10-09T18:18:36.306Z,9.40
2017-10-09T18:21:03.902Z,10.23
2017-10-09T18:23:31.541Z,9.60
2017-10-09T18:25:59.140Z,9.53
2017-10-09T18:28:26.738Z,9.87
2017-10-09T18:30:54.356Z,9.40
2017-10-09T18:33:21.955Z,9.40
2017-10-09T18:35:49.580Z,9.73
2017-10-09T18:38:17.185Z,9.33
2017-10-09T18:40:44.789Z,9.73
2017-10-09T18:43:12.454Z,9.57
2017-10-09T18:45:40.045Z,9.77
2017-10-09T18:48:07.681Z,9.50
2017-10-09T18:50:35.295Z,10.13
2017-10-09T18:53:02.889Z,9.77
2017-10-09T18:55:30.549Z,9.43
2017-10-09T18:57:58.137Z,9.50
2017-10-09T19:00:25.797Z,10.07
2017-10-09T19:02:53.637Z,9.93
2017-10-09T19:05:21.250Z,10.33
2017-10-09T19:07:49.221Z,9.90
2017-10-09T19:10:16.809Z,10.07
2017-10-09T19:12:44.417Z,10.17
2017-10-09T19:15:12.049Z,9.90
2017-10-09T19:17:39.974Z,10.63
2017-10-09T19:20:07.575Z,11.20
2017-10-09T19:22:35.193Z,10.50
2017-10-09T19:25:02.816Z,11.30
2017-10-09T19:27:30.455Z,11.50
2017-10-09T19:29:58.040Z,10.37
2017-10-09T19:32:25.874Z,9.93
2017-10-09T19:34:53.501Z,10.80
2017-10-09T19:37:21.113Z,10.87
2017-10-09T19:39:48.768Z,11.30
2017-10-09T19:42:16.355Z,11.70
2017-10-09T19:44:43.958Z,10.20
2017-10-09T19:47:11.581Z,10.47
2017-10-09T19:49:39.167Z,10.63
2017-10-09T19:52:06.801Z,10.77
2017-10-09T19:54:34.718Z,10.37
2017-10-09T19:57:02.348Z,10.20
2017-10-09T19:59:29.965Z,10.50
2017-10-09T20:01:58.298Z,10.60
2017-10-09T20:04:25.941Z,11.07
2017-10-09T20:06:53.528Z,10.83
2017-10-09T20:09:21.113Z,11.70
2017-10-09T20:11:48.778Z,11.17
2017-10-09T20:14:16.363Z,10.80
2017-10-09T20:16:43.994Z,10.90
2017-10-09T20:19:11.623Z,10.80
2017-10-09T20:21:39.221Z,10.73
2017-10-09T20:24:06.854Z,10.87
2017-10-09T20:26:34.447Z,11.30
2017-10-09T20:29:02.075Z,10.20
2017-10-09T20:31:30.259Z,11.03
2017-10-09T20:33:58.079Z,10.90
2017-10-09T20:36:26.565Z,10.57
2017-10-09T20:38:54.213Z,10.40
2017-10-09T20:41:22.161Z,10.73
2017-10-09T20:43:49.779Z,10.57
2017-10-09T20:46:17.378Z,10.87
2017-10-09T20:48:45.007Z,10.80
2017-10-09T20:51:12.594Z,10.70
2017-10-09T20:53:40.241Z,10.47
2017-10-09T20:56:07.866Z,11.23
2017-10-09T20:58:35.473Z,10.33
2017-10-09T21:01:03.085Z,10.30
2017-10-09T21:03:30.680Z,10.87
2017-10-09T21:05:58.581Z,10.47
2017-10-09T21:08:26.169Z,10.57
2017-10-09T21:10:53.758Z,11.33
2017-10-09T21:13:21.437Z,10.90
2017-10-09T21:15:49.032Z,11.10
2017-10-09T21:18:16.721Z,10.40
2017-10-09T21:20:44.365Z,11.50
2017-10-09T21:23:11.970Z,10.50
2017-10-09T21:25:39.598Z,10.93
2017-10-09T21:28:07.192Z,11.63
2017-10-09T21:30:34.829Z,11.37
2017-10-09T21:33:02.427Z,10.83
2017-10-09T21:35:30.029Z,11.23
2017-10-09T21:37:57.645Z,10.90
2017-10-09T21:40:25.270Z,10.20
2017-10-09T21:42:52.927Z,10.47
2017-10-09T21:45:20.527Z,11.47
2017-10-09T21:47:48.121Z,11.60
2017-10-09T21:50:15.730Z,11.33
2017-10-09T21:52:43.578Z,11.10
2017-10-09T21:55:11.204Z,11.20
2017-10-09T21:57:38.863Z,12.60
2017-10-09T22:00:06.459Z,12.17
2017-10-09T22:02:34.068Z,12.20
2017-10-09T22:05:02.101Z,11.93
2017-10-09T22:07:29.729Z,13.73
2017-10-09T22:09:57.323Z,13.10
2017-10-09T22:12:24.909Z,13.07
2017-10-09T22:14:52.535Z,14.30
2017-10-09T22:17:20.125Z,11.80
2017-10-09T22:19:47.750Z,12.67
2017-10-09T22:22:15.334Z,13.20
2017-10-09T22:24:43.291Z,12.70
2017-10-09T22:27:10.899Z,12.60
2017-10-09T22:29:38.720Z,12.40
2017-10-09T22:32:06.345Z,12.70
2017-10-09T22:34:33.937Z,13.80
2017-10-09T22:37:01.532Z,12.80
2017-10-09T22:39:29.144Z,13.27
2017-10-09T22:41:56.743Z,13.57
2017-10-09T22:44:24.373Z,13.50
2017-10-09T22:46:51.959Z,13.63
2017-10-09T22:49:19.544Z,12.90
2017-10-09T22:51:47.397Z,13.47
2017-10-09T22:54:14.992Z,14.00
2017-10-09T22:56:42.642Z,14.70
2017-10-09T23:00:00.317Z,14.30
2017-10-09T23:02:28.311Z,15.30
2017-10-09T23:04:55.913Z,14.47
2017-10-09T23:07:23.520Z,14.57
2017-10-09T23:09:51.138Z,15.13
2017-10-09T23:12:18.733Z,14.87
2017-10-09T23:14:46.374Z,15.50
2017-10-09T23:17:13.953Z,15.97
2017-10-09T23:19:41.545Z,15.33
2017-10-09T23:22:09.517Z,16.27
2017-10-09T23:24:37.114Z,15.40
2017-10-09T23:27:04.742Z,15.67
2017-10-09T23:29:32.333Z,16.40
2017-10-09T23:31:59.925Z,15.90
2017-10-09T23:34:27.553Z,15.53
2017-10-09T23:36:55.386Z,16.77
2017-10-09T23:39:23.000Z,16.63
2017-10-09T23:41:50.585Z,16.43
2017-10-09T23:44:18.185Z,17.17
2017-10-09T23:46:46.152Z,17.83
2017-10-09T23:49:13.740Z,18.10
2017-10-09T23:51:41.372Z,17.40
2017-10-09T23:54:08.961Z,17.90
2017-10-09T23:56:36.572Z,18.00
2017-10-09T23:59:04.194Z,18.67
